Time;durP1;ratioP1;P1;durP2;ratioP2;P2;SDS_P1;SDS_P2;PMS_P1;PMS_P2;Temp;Humidity;BMP_temperature;BMP_pressure;BME280_temperature;BME280_humidity;BME280_pressure;Samples;Min_cycle;Max_cycle;Signal;HPM_P1;HPM_P2
2023/12/17 00:01:42;;;;;;;4.07;1.70;;;;;;;;;;6152341;28;20140;-87
2023/12/17 00:04:44;;;;;;;2.03;1.60;;;;;;;;;;6165271;28;20045;-87
2023/12/17 00:07:46;;;;;;;3.05;2.05;;;;;;;;;;6153244;28;20053;-87
2023/12/17 00:10:49;;;;;;;3.13;1.80;;;;;;;;;;6156653;28;20043;-86
2023/12/17 00:13:51;;;;;;;6.03;2.53;;;;;;;;;;6141065;28;20050;-87
2023/12/17 00:16:55;;;;;;;3.22;1.88;;;;;;;;;;6155322;28;20945;-87
2023/12/17 00:19:57;;;;;;;3.05;2.05;;;;;;;;;;6159270;28;20038;-87
2023/12/17 00:22:59;;;;;;;3.60;2.13;;;;;;;;;;6145841;28;20046;-87
2023/12/17 00:26:02;;;;;;;5.07;2.30;;;;;;;;;;6133803;28;20043;-86
2023/12/17 00:29:04;;;;;;;4.63;2.47;;;;;;;;;;6161306;28;20050;-87
2023/12/17 00:32:06;;;;;;;7.28;2.55;;;;;;;;;;6166359;28;20061;-86
2023/12/17 00:35:08;;;;;;;3.72;2.15;;;;;;;;;;6162664;28;20082;-86
2023/12/17 00:38:10;;;;;;;4.88;2.25;;;;;;;;;;6158032;28;20049;-86
2023/12/17 00:41:13;;;;;;;3.83;2.08;;;;;;;;;;6148827;28;20046;-86
2023/12/17 00:44:14;;;;;;;3.55;2.08;;;;;;;;;;6143786;28;20046;-86
2023/12/17 00:47:16;;;;;;;2.97;1.80;;;;;;;;;;6162443;28;20043;-86
2023/12/17 00:50:21;;;;;;;3.58;2.10;;;;;;;;;;6176164;28;20117;-87
2023/12/17 00:53:25;;;;;;;4.10;1.80;;;;;;;;;;6125635;28;20046;-86
2023/12/17 00:56:30;;;;;;;2.75;1.98;;;;;;;;;;6131707;28;20061;-87
2023/12/17 00:59:32;;;;;;;6.32;2.53;;;;;;;;;;6144160;28;20049;-87
2023/12/17 01:02:39;;;;;;;3.75;1.67;;;;;;;;;;6159554;28;20073;-87
2023/12/17 01:05:42;;;;;;;5.05;2.20;;;;;;;;;;6133660;28;20064;-87
2023/12/17 01:08:48;;;;;;;4.07;2.00;;;;;;;;;;6159655;28;20188;-87
2023/12/17 01:11:50;;;;;;;3.33;1.90;;;;;;;;;;6143601;28;20129;-86
2023/12/17 01:14:52;;;;;;;4.78;2.15;;;;;;;;;;6136408;28;20065;-85
2023/12/17 01:17:54;;;;;;;4.03;2.53;;;;;;;;;;6178891;28;20054;-86
2023/12/17 01:20:59;;;;;;;3.45;2.20;;;;;;;;;;6163709;28;20061;-86
2023/12/17 01:24:01;;;;;;;5.28;2.38;;;;;;;;;;6136666;28;20061;-86
2023/12/17 01:27:03;;;;;;;3.83;2.25;;;;;;;;;;6152112;28;20050;-86
2023/12/17 01:30:06;;;;;;;5.18;2.10;;;;;;;;;;6161212;28;20050;-87
2023/12/17 01:33:11;;;;;;;4.13;2.28;;;;;;;;;;6156059;28;20081;-86
2023/12/17 01:36:13;;;;;;;4.10;2.30;;;;;;;;;;6158321;28;20124;-88
2023/12/17 01:39:16;;;;;;;4.60;2.50;;;;;;;;;;6137393;28;20712;-86
2023/12/17 01:42:18;;;;;;;5.32;2.53;;;;;;;;;;6151640;28;20046;-87
2023/12/17 01:45:20;;;;;;;4.78;2.53;;;;;;;;;;6156813;28;20051;-86
2023/12/17 01:48:25;;;;;;;5.13;2.40;;;;;;;;;;6152198;28;20078;-86
2023/12/17 01:51:27;;;;;;;6.65;2.58;;;;;;;;;;6164596;28;20039;-87
2023/12/17 01:54:29;;;;;;;5.25;2.47;;;;;;;;;;6146495;28;20041;-86
2023/12/17 01:57:31;;;;;;;5.53;2.67;;;;;;;;;;6149663;28;20061;-87
2023/12/17 02:00:33;;;;;;;4.63;2.58;;;;;;;;;;6163342;28;20104;-86
2023/12/17 02:03:35;;;;;;;5.38;3.00;;;;;;;;;;6163656;28;20129;-87
2023/12/17 02:06:41;;;;;;;4.75;2.85;;;;;;;;;;6140849;28;20114;-86
2023/12/17 02:09:43;;;;;;;6.72;2.92;;;;;;;;;;6142600;28;20049;-87
2023/12/17 02:12:46;;;;;;;6.15;3.00;;;;;;;;;;6156067;28;20050;-86
2023/12/17 02:15:48;;;;;;;6.78;3.30;;;;;;;;;;6163007;28;20073;-86
2023/12/17 02:18:50;;;;;;;9.57;3.72;;;;;;;;;;6170588;28;20046;-87
2023/12/17 02:21:52;;;;;;;7.35;3.33;;;;;;;;;;6178568;28;20077;-86
2023/12/17 02:24:54;;;;;;;6.07;3.33;;;;;;;;;;6140343;28;21018;-86
2023/12/17 02:27:59;;;;;;;6.60;3.42;;;;;;;;;;6143015;28;20472;-87
2023/12/17 02:31:01;;;;;;;9.07;3.85;;;;;;;;;;6124062;28;20053;-87
2023/12/17 02:34:03;;;;;;;6.75;3.63;;;;;;;;;;6171127;28;20061;-86
2023/12/17 02:37:05;;;;;;;7.25;3.92;;;;;;;;;;6154407;28;20581;-86
2023/12/17 02:40:08;;;;;;;8.82;4.18;;;;;;;;;;6162503;28;20058;-86
2023/12/17 02:43:09;;;;;;;8.45;3.72;;;;;;;;;;6172502;28;20053;-86
2023/12/17 02:46:12;;;;;;;9.18;4.65;;;;;;;;;;6154586;28;20050;-87
2023/12/17 02:49:14;;;;;;;11.10;4.38;;;;;;;;;;6125408;28;20135;-87
2023/12/17 02:52:18;;;;;;;9.57;4.40;;;;;;;;;;6153113;28;20523;-87
2023/12/17 02:55:20;;;;;;;10.93;4.43;;;;;;;;;;6143802;28;20050;-87
2023/12/17 02:58:22;;;;;;;10.75;5.13;;;;;;;;;;6141731;28;20042;-86
2023/12/17 03:01:24;;;;;;;11.10;4.97;;;;;;;;;;6143669;28;20061;-87
2023/12/17 03:04:29;;;;;;;13.25;5.30;;;;;;;;;;6162835;28;20045;-86
2023/12/17 03:07:31;;;;;;;13.90;6.38;;;;;;;;;;6143743;28;20129;-87
2023/12/17 03:10:32;;;;;;;11.32;4.93;;;;;;;;;;6137696;28;20133;-88
2023/12/17 03:13:34;;;;;;;11.07;5.35;;;;;;;;;;6165359;28;20053;-87
2023/12/17 03:16:36;;;;;;;11.25;4.78;;;;;;;;;;6156445;28;20046;-87
2023/12/17 03:19:38;;;;;;;15.40;5.57;;;;;;;;;;6166188;28;20659;-87
2023/12/17 03:22:40;;;;;;;11.57;5.45;;;;;;;;;;6162916;28;20050;-86
2023/12/17 03:25:42;;;;;;;11.93;5.32;;;;;;;;;;6191068;28;20053;-87
2023/12/17 03:28:47;;;;;;;14.57;6.03;;;;;;;;;;6157707;28;20045;-87
2023/12/17 03:31:49;;;;;;;16.05;5.88;;;;;;;;;;6172602;28;20521;-87
2023/12/17 03:34:51;;;;;;;16.60;5.22;;;;;;;;;;6163998;28;20155;-86
2023/12/17 03:37:53;;;;;;;13.20;5.20;;;;;;;;;;6156714;28;20450;-87
2023/12/17 03:40:57;;;;;;;16.33;5.72;;;;;;;;;;6148038;28;20046;-87
2023/12/17 03:43:58;;;;;;;14.95;5.75;;;;;;;;;;6156806;28;20129;-87
2023/12/17 03:47:00;;;;;;;13.20;5.75;;;;;;;;;;6153928;28;20042;-87
2023/12/17 03:50:05;;;;;;;16.75;5.35;;;;;;;;;;6174038;28;20108;-87
2023/12/17 03:53:10;;;;;;;14.38;5.40;;;;;;;;;;6155231;28;20140;-87
2023/12/17 03:56:14;;;;;;;12.05;5.43;;;;;;;;;;6181642;28;20054;-87
2023/12/17 03:59:16;;;;;;;12.35;5.35;;;;;;;;;;6162430;28;20043;-87
2023/12/17 04:02:21;;;;;;;10.52;4.60;;;;;;;;;;6157777;28;20042;-87
2023/12/17 04:05:29;;;;;;;8.32;4.43;;;;;;;;;;6163812;28;20053;-87
2023/12/17 04:08:31;;;;;;;8.40;4.43;;;;;;;;;;6193019;23;20053;-80
2023/12/17 04:11:33;;;;;;;10.48;4.90;;;;;;;;;;6212366;28;20057;-76
2023/12/17 04:14:35;;;;;;;9.60;4.70;;;;;;;;;;6193396;28;20166;-80
2023/12/17 04:17:36;;;;;;;10.18;4.80;;;;;;;;;;6210083;28;20061;-79
2023/12/17 04:20:39;;;;;;;11.00;4.38;;;;;;;;;;6185423;28;20046;-75
2023/12/17 04:23:40;;;;;;;10.38;4.60;;;;;;;;;;6186066;28;20127;-79
2023/12/17 04:26:42;;;;;;;9.30;4.50;;;;;;;;;;6206275;28;20050;-80
2023/12/17 04:29:45;;;;;;;9.50;4.43;;;;;;;;;;6203231;28;20052;-80
2023/12/17 04:32:48;;;;;;;10.20;4.85;;;;;;;;;;6188219;28;20046;-77
2023/12/17 04:35:50;;;;;;;11.85;4.78;;;;;;;;;;6174917;28;20046;-78
2023/12/17 04:38:52;;;;;;;8.48;4.18;;;;;;;;;;6203332;28;20474;-76
2023/12/17 04:41:54;;;;;;;9.75;3.78;;;;;;;;;;6190663;28;20053;-77
2023/12/17 04:44:56;;;;;;;8.13;3.90;;;;;;;;;;6206900;28;20053;-78
2023/12/17 04:47:58;;;;;;;9.18;3.83;;;;;;;;;;6188195;28;20057;-79
2023/12/17 04:51:00;;;;;;;6.93;3.92;;;;;;;;;;6207228;28;20050;-79
2023/12/17 04:54:02;;;;;;;9.43;4.10;;;;;;;;;;6204736;28;20050;-79
2023/12/17 04:57:05;;;;;;;9.05;3.70;;;;;;;;;;6185797;28;20521;-76
2023/12/17 05:00:08;;;;;;;10.30;3.70;;;;;;;;;;6205427;28;20041;-80
2023/12/17 05:03:10;;;;;;;9.25;3.58;;;;;;;;;;6208652;28;20123;-79
2023/12/17 05:06:12;;;;;;;10.68;3.65;;;;;;;;;;6213278;28;20073;-77
2023/12/17 05:09:14;;;;;;;6.03;3.40;;;;;;;;;;6203893;28;20099;-76
2023/12/17 05:12:15;;;;;;;6.95;3.70;;;;;;;;;;6217795;28;20069;-76
2023/12/17 05:15:17;;;;;;;5.50;3.00;;;;;;;;;;6217716;28;20541;-78
2023/12/17 05:18:19;;;;;;;6.68;3.40;;;;;;;;;;6207915;28;20049;-79
2023/12/17 05:21:21;;;;;;;7.57;3.67;;;;;;;;;;6208455;28;20172;-80
2023/12/17 05:24:23;;;;;;;8.48;4.22;;;;;;;;;;6204877;28;20049;-78
2023/12/17 05:27:25;;;;;;;8.35;3.28;;;;;;;;;;6206505;28;20041;-79
2023/12/17 05:30:27;;;;;;;7.60;3.58;;;;;;;;;;6161530;28;20078;-77
2023/12/17 05:33:29;;;;;;;5.93;3.20;;;;;;;;;;6205631;28;20601;-80
2023/12/17 05:36:33;;;;;;;6.38;3.40;;;;;;;;;;6205614;28;20096;-79
2023/12/17 05:39:35;;;;;;;6.85;3.42;;;;;;;;;;6185289;28;20049;-78
2023/12/17 05:42:37;;;;;;;7.65;3.78;;;;;;;;;;6208352;28;20058;-80
2023/12/17 05:45:39;;;;;;;7.10;3.30;;;;;;;;;;6203567;28;20172;-77
2023/12/17 05:48:55;;;;;;;7.93;3.50;;;;;;;;;;6182574;28;20084;-77
2023/12/17 05:51:57;;;;;;;6.85;3.20;;;;;;;;;;6207212;28;20422;-78
2023/12/17 05:54:59;;;;;;;5.28;2.65;;;;;;;;;;6205953;28;21010;-76
2023/12/17 05:58:01;;;;;;;6.65;2.45;;;;;;;;;;6210891;28;20050;-77
2023/12/17 06:01:03;;;;;;;5.18;2.67;;;;;;;;;;6190679;28;20391;-77
2023/12/17 06:04:05;;;;;;;7.18;2.92;;;;;;;;;;6209470;28;20431;-77
2023/12/17 06:07:07;;;;;;;5.00;2.40;;;;;;;;;;6202155;28;20169;-75
2023/12/17 06:10:09;;;;;;;4.07;1.90;;;;;;;;;;6198693;28;20416;-76
2023/12/17 06:13:11;;;;;;;3.80;1.90;;;;;;;;;;6186162;28;20050;-78
2023/12/17 06:16:13;;;;;;;4.50;2.17;;;;;;;;;;6189393;28;20053;-75
2023/12/17 06:19:15;;;;;;;4.40;2.00;;;;;;;;;;6198232;28;20042;-78
2023/12/17 06:22:17;;;;;;;6.00;2.73;;;;;;;;;;6182613;28;20054;-78
2023/12/17 06:25:19;;;;;;;4.70;2.38;;;;;;;;;;6181436;28;20042;-76
2023/12/17 06:28:21;;;;;;;4.05;1.90;;;;;;;;;;6204418;28;20046;-76
2023/12/17 06:31:24;;;;;;;3.65;1.80;;;;;;;;;;6185568;28;20041;-80
2023/12/17 06:34:26;;;;;;;4.05;2.10;;;;;;;;;;6185934;28;20052;-77
2023/12/17 06:37:28;;;;;;;4.53;2.10;;;;;;;;;;6197570;28;20048;-78
2023/12/17 06:40:29;;;;;;;4.32;1.75;;;;;;;;;;6198981;28;20065;-77
2023/12/17 06:43:31;;;;;;;4.82;2.20;;;;;;;;;;6195773;28;20046;-79
2023/12/17 06:46:33;;;;;;;4.13;1.88;;;;;;;;;;6201147;28;20049;-78
2023/12/17 06:49:38;;;;;;;3.20;1.80;;;;;;;;;;6205271;28;20049;-79
2023/12/17 06:52:40;;;;;;;4.60;2.00;;;;;;;;;;6179736;28;20062;-76
2023/12/17 06:55:43;;;;;;;3.53;2.00;;;;;;;;;;6182474;28;20052;-79
2023/12/17 06:58:44;;;;;;;3.10;1.67;;;;;;;;;;6184941;28;20046;-76
2023/12/17 07:01:46;;;;;;;3.85;1.80;;;;;;;;;;6203495;28;20045;-77
2023/12/17 07:04:48;;;;;;;3.55;1.65;;;;;;;;;;6196787;28;20050;-77
2023/12/17 07:07:50;;;;;;;3.03;1.90;;;;;;;;;;6200546;28;20050;-79
2023/12/17 07:10:52;;;;;;;3.42;1.85;;;;;;;;;;6200904;28;20109;-80
2023/12/17 07:13:54;;;;;;;3.17;1.85;;;;;;;;;;6203220;28;20053;-80
2023/12/17 07:16:55;;;;;;;3.97;1.95;;;;;;;;;;6206194;28;20052;-79
2023/12/17 07:20:00;;;;;;;3.03;1.67;;;;;;;;;;6208128;28;20125;-76
2023/12/17 07:23:02;;;;;;;2.47;1.50;;;;;;;;;;6221414;28;20048;-75
2023/12/17 07:26:04;;;;;;;2.10;1.50;;;;;;;;;;6219322;28;20423;-79
2023/12/17 07:29:06;;;;;;;3.38;1.60;;;;;;;;;;6182177;28;20058;-79
2023/12/17 07:32:07;;;;;;;3.83;1.40;;;;;;;;;;6203519;28;20049;-77
2023/12/17 07:35:09;;;;;;;7.68;2.40;;;;;;;;;;6165501;28;20061;-79
2023/12/17 07:38:12;;;;;;;4.88;2.50;;;;;;;;;;6204324;28;20050;-81
2023/12/17 07:41:14;;;;;;;7.07;2.63;;;;;;;;;;6190777;28;20500;-82
2023/12/17 07:44:16;;;;;;;5.50;2.78;;;;;;;;;;6184916;28;20081;-78
2023/12/17 07:47:18;;;;;;;4.35;2.05;;;;;;;;;;6186173;28;20068;-78
2023/12/17 07:50:20;;;;;;;5.53;2.55;;;;;;;;;;6162436;28;20034;-81
2023/12/17 07:53:22;;;;;;;6.18;2.40;;;;;;;;;;6178264;28;20042;-82
2023/12/17 07:56:24;;;;;;;5.45;2.75;;;;;;;;;;6199147;28;20512;-80
2023/12/17 07:59:26;;;;;;;5.15;2.60;;;;;;;;;;6189342;28;20046;-82
2023/12/17 08:02:28;;;;;;;6.60;2.80;;;;;;;;;;6209266;28;20519;-82
2023/12/17 08:05:29;;;;;;;7.05;3.25;;;;;;;;;;6194892;28;20054;-81
2023/12/17 08:08:31;;;;;;;4.85;2.10;;;;;;;;;;6191458;28;20046;-81
2023/12/17 08:11:34;;;;;;;6.30;2.72;;;;;;;;;;6181098;28;20060;-77
2023/12/17 08:14:36;;;;;;;5.47;2.63;;;;;;;;;;6188199;28;20488;-79
2023/12/17 08:17:38;;;;;;;6.13;3.03;;;;;;;;;;6188864;28;20061;-77
2023/12/17 08:20:40;;;;;;;11.18;4.28;;;;;;;;;;6187492;28;20052;-77
2023/12/17 08:23:42;;;;;;;10.70;4.45;;;;;;;;;;6172855;28;21113;-80
2023/12/17 08:26:44;;;;;;;6.00;2.95;;;;;;;;;;6209439;28;20049;-80
2023/12/17 08:29:47;;;;;;;6.13;2.80;;;;;;;;;;6187535;28;20046;-78
2023/12/17 08:32:50;;;;;;;5.30;2.75;;;;;;;;;;6157814;28;20052;-77
2023/12/17 08:35:54;;;;;;;;;;;;;;;;;;6170079;28;20049;-82
2023/12/17 08:38:57;;;;;;;5.63;2.55;;;;;;;;;;6141918;28;19925;-79
2023/12/17 08:42:03;;;;;;;7.53;2.80;;;;;;;;;;6185739;28;20049;-78
2023/12/17 08:45:06;;;;;;;6.93;2.85;;;;;;;;;;6210465;28;20046;-81
2023/12/17 08:48:08;;;;;;;7.65;3.22;;;;;;;;;;6193135;28;20531;-80
2023/12/17 08:51:11;;;;;;;4.95;2.80;;;;;;;;;;6207840;28;20150;-83
2023/12/17 08:54:14;;;;;;;8.30;3.20;;;;;;;;;;6187905;28;20057;-81
2023/12/17 08:57:17;;;;;;;;;;;;;;;;;;6185267;28;20050;-82
2023/12/17 09:00:19;;;;;;;4.57;2.75;;;;;;;;;;6208966;28;20054;-81
2023/12/17 09:03:21;;;;;;;8.63;3.83;;;;;;;;;;6210434;28;20054;-80
2023/12/17 09:06:23;;;;;;;10.68;3.75;;;;;;;;;;6192194;28;20041;-79
2023/12/17 09:09:25;;;;;;;9.07;3.38;;;;;;;;;;6190334;28;20056;-81
2023/12/17 09:12:27;;;;;;;8.60;4.07;;;;;;;;;;6209992;28;20042;-82
2023/12/17 09:15:29;;;;;;;9.57;4.07;;;;;;;;;;6204184;28;20510;-81
2023/12/17 09:18:31;;;;;;;9.30;4.00;;;;;;;;;;6207191;28;20073;-80
2023/12/17 09:21:33;;;;;;;16.98;7.22;;;;;;;;;;6203413;28;20813;-76
2023/12/17 09:24:36;;;;;;;9.27;4.00;;;;;;;;;;6172483;28;20045;-82
2023/12/17 09:27:39;;;;;;;10.80;5.28;;;;;;;;;;6165367;28;20864;-80
2023/12/17 09:30:42;;;;;;;10.15;4.00;;;;;;;;;;6183928;28;20068;-81
2023/12/17 09:33:50;;;;;;;8.30;3.50;;;;;;;;;;6163947;28;20036;-78
2023/12/17 09:36:56;;;;;;;6.65;3.15;;;;;;;;;;6183226;28;20145;-77
2023/12/17 09:39:58;;;;;;;18.17;7.22;;;;;;;;;;6162486;28;20041;-80
2023/12/17 09:43:02;;;;;;;10.48;3.70;;;;;;;;;;6187146;28;20045;-81
2023/12/17 09:46:04;;;;;;;8.65;3.00;;;;;;;;;;6202880;28;20082;-77
2023/12/17 09:49:06;;;;;;;11.48;4.50;;;;;;;;;;6224754;28;20069;-78
2023/12/17 09:52:12;;;;;;;8.25;3.58;;;;;;;;;;6197530;28;20050;-80
2023/12/17 09:55:14;;;;;;;9.38;3.78;;;;;;;;;;6179391;28;20157;-78
2023/12/17 09:58:17;;;;;;;11.55;5.60;;;;;;;;;;6184199;28;20500;-80
2023/12/17 10:01:21;;;;;;;13.25;5.53;;;;;;;;;;6181805;28;20046;-80
2023/12/17 10:04:24;;;;;;;11.45;5.30;;;;;;;;;;6200653;28;20374;-80
2023/12/17 10:07:26;;;;;;;13.15;6.03;;;;;;;;;;6201202;28;20046;-79
2023/12/17 10:10:30;;;;;;;6.10;2.90;;;;;;;;;;6181193;28;20151;-78
2023/12/17 10:13:31;;;;;;;;;;;;;;;;;;6185504;28;20148;-79
2023/12/17 10:16:33;;;;;;;7.68;3.63;;;;;;;;;;6182000;28;19925;-80
2023/12/17 10:19:35;;;;;;;9.55;4.50;;;;;;;;;;6202264;28;20053;-79
2023/12/17 10:22:37;;;;;;;21.17;7.85;;;;;;;;;;6203654;28;20041;-80
2023/12/17 10:25:40;;;;;;;6.78;3.05;;;;;;;;;;6202884;28;20049;-76
2023/12/17 10:28:46;;;;;;;8.32;3.83;;;;;;;;;;6187635;28;20152;-77
2023/12/17 10:31:49;;;;;;;8.30;4.05;;;;;;;;;;6203450;28;20046;-80
2023/12/17 10:34:52;;;;;;;;;;;;;;;;;;6189379;28;20042;-79
2023/12/17 10:38:00;;;;;;;8.07;4.07;;;;;;;;;;6184555;28;20366;-80
2023/12/17 10:41:02;;;;;;;9.20;3.85;;;;;;;;;;6192312;28;20054;-80
2023/12/17 10:44:05;;;;;;;7.05;3.58;;;;;;;;;;6200627;28;21530;-79
2023/12/17 10:47:08;;;;;;;5.93;2.85;;;;;;;;;;6188410;28;20077;-83
2023/12/17 10:50:11;;;;;;;7.60;3.50;;;;;;;;;;6185443;28;20084;-81
2023/12/17 10:53:15;;;;;;;7.20;3.25;;;;;;;;;;6178489;28;20042;-81
2023/12/17 10:56:20;;;;;;;5.80;3.15;;;;;;;;;;6190383;28;20065;-82
2023/12/17 10:59:27;;;;;;;6.57;2.72;;;;;;;;;;6203628;28;20652;-81
2023/12/17 11:02:41;;;;;;;7.65;3.50;;;;;;;;;;6203645;28;20234;-79
2023/12/17 11:05:58;;;;;;;7.80;3.38;;;;;;;;;;6212321;28;20061;-80
2023/12/17 11:09:03;;;;;;;6.88;3.50;;;;;;;;;;6203929;28;20632;-81
2023/12/17 11:12:06;;;;;;;6.60;3.50;;;;;;;;;;6204710;28;21163;-81
2023/12/17 11:15:08;;;;;;;6.65;3.53;;;;;;;;;;6203973;28;20065;-83
2023/12/17 11:18:10;;;;;;;7.07;2.85;;;;;;;;;;6184570;28;20046;-82
2023/12/17 11:21:13;;;;;;;6.13;3.13;;;;;;;;;;6205961;28;20054;-80
2023/12/17 11:24:19;;;;;;;6.15;2.80;;;;;;;;;;6200943;28;20065;-80
2023/12/17 11:27:22;;;;;;;5.10;2.90;;;;;;;;;;6202302;28;20081;-81
2023/12/17 11:30:32;;;;;;;6.35;2.95;;;;;;;;;;6182857;28;20415;-79
2023/12/17 11:33:37;;;;;;;4.95;2.33;;;;;;;;;;6190131;28;20124;-79
2023/12/17 11:36:40;;;;;;;5.85;2.75;;;;;;;;;;6188004;28;20038;-76
2023/12/17 11:39:44;;;;;;;7.27;3.00;;;;;;;;;;6205460;28;20049;-76
2023/12/17 11:42:59;;;;;;;5.78;3.35;;;;;;;;;;6190393;28;20060;-81
2023/12/17 11:46:01;;;;;;;7.03;3.42;;;;;;;;;;6206936;28;20049;-78
2023/12/17 11:49:04;;;;;;;7.18;3.10;;;;;;;;;;6214063;28;20086;-77
2023/12/17 11:52:14;;;;;;;6.13;3.05;;;;;;;;;;6220312;28;20065;-80
2023/12/17 11:55:15;;;;;;;9.27;4.35;;;;;;;;;;6193347;28;20046;-82
2023/12/17 11:58:20;;;;;;;5.22;3.03;;;;;;;;;;6181238;28;20076;-80
2023/12/17 12:01:22;;;;;;;6.95;3.47;;;;;;;;;;6203672;28;20046;-82
2023/12/17 12:04:24;;;;;;;5.63;2.72;;;;;;;;;;6189053;28;20127;-80
2023/12/17 12:07:27;;;;;;;7.15;3.08;;;;;;;;;;6203525;28;20677;-79
2023/12/17 12:10:29;;;;;;;7.88;3.92;;;;;;;;;;6204423;28;20512;-82
2023/12/17 12:13:31;;;;;;;4.60;2.55;;;;;;;;;;6205177;28;20050;-82
2023/12/17 12:16:42;;;;;;;11.18;4.78;;;;;;;;;;6201318;28;20050;-80
2023/12/17 12:19:48;;;;;;;6.25;3.40;;;;;;;;;;6181660;28;20049;-82
2023/12/17 12:22:50;;;;;;;6.47;3.65;;;;;;;;;;6196532;28;20558;-82
2023/12/17 12:25:59;;;;;;;7.30;3.53;;;;;;;;;;6202271;28;20052;-80
2023/12/17 12:29:03;;;;;;;6.15;3.10;;;;;;;;;;6175928;28;20046;-80
2023/12/17 12:32:07;;;;;;;22.23;7.85;;;;;;;;;;6187262;28;20050;-81
2023/12/17 12:35:29;;;;;;;25.70;7.53;;;;;;;;;;6172912;28;20049;-81
2023/12/17 12:38:31;;;;;;;41.22;11.85;;;;;;;;;;6183700;28;20085;-79
2023/12/17 12:41:33;;;;;;;27.95;8.77;;;;;;;;;;6198962;28;20052;-82
2023/12/17 12:44:35;;;;;;;19.15;6.60;;;;;;;;;;6169884;28;20496;-80
2023/12/17 12:47:37;;;;;;;10.57;4.60;;;;;;;;;;6180221;28;20155;-80
2023/12/17 12:50:39;;;;;;;8.07;4.00;;;;;;;;;;6201762;28;20453;-79
2023/12/17 12:53:41;;;;;;;12.45;5.97;;;;;;;;;;6197688;28;20397;-80
2023/12/17 12:56:42;;;;;;;7.72;3.83;;;;;;;;;;6202840;28;20042;-80
2023/12/17 12:59:44;;;;;;;7.78;4.20;;;;;;;;;;6205312;28;20105;-82
2023/12/17 13:02:46;;;;;;;11.55;5.63;;;;;;;;;;6205560;28;20164;-80
2023/12/17 13:05:48;;;;;;;10.38;4.70;;;;;;;;;;6183858;28;20703;-80
2023/12/17 13:08:50;;;;;;;10.07;5.25;;;;;;;;;;6190391;28;20042;-82
2023/12/17 13:11:53;;;;;;;59.90;20.65;;;;;;;;;;6189996;28;20053;-80
2023/12/17 13:14:55;;;;;;;15.82;6.75;;;;;;;;;;6173652;28;20056;-80
2023/12/17 13:17:58;;;;;;;12.47;6.77;;;;;;;;;;6205585;28;20069;-82
2023/12/17 13:21:01;;;;;;;11.38;6.63;;;;;;;;;;6182534;28;20168;-81
2023/12/17 13:24:03;;;;;;;9.33;6.23;;;;;;;;;;6205862;28;20053;-83
2023/12/17 13:27:04;;;;;;;10.18;5.53;;;;;;;;;;6184973;28;20437;-83
2023/12/17 13:30:07;;;;;;;19.95;11.45;;;;;;;;;;6187561;28;20512;-81
2023/12/17 13:33:09;;;;;;;16.57;9.27;;;;;;;;;;6208608;28;20194;-83
2023/12/17 13:36:11;;;;;;;10.87;4.70;;;;;;;;;;6182107;28;20050;-84
2023/12/17 13:39:13;;;;;;;21.92;10.10;;;;;;;;;;6182897;28;20053;-79
2023/12/17 13:42:16;;;;;;;15.82;8.93;;;;;;;;;;6189091;28;20864;-82
2023/12/17 13:45:18;;;;;;;13.53;7.20;;;;;;;;;;6193466;28;20049;-84
2023/12/17 13:48:19;;;;;;;11.70;5.55;;;;;;;;;;6217400;28;20054;-80
2023/12/17 13:51:22;;;;;;;13.77;6.05;;;;;;;;;;6227953;28;20049;-80
2023/12/17 13:54:24;;;;;;;9.95;5.07;;;;;;;;;;6225023;28;20117;-81
2023/12/17 13:57:28;;;;;;;15.98;8.85;;;;;;;;;;6208376;28;20046;-80
2023/12/17 14:00:31;;;;;;;13.50;5.80;;;;;;;;;;6190832;28;20176;-83
2023/12/17 14:03:34;;;;;;;12.88;5.88;;;;;;;;;;6224402;28;20033;-78
2023/12/17 14:06:36;;;;;;;12.73;6.18;;;;;;;;;;6233650;28;20096;-80
2023/12/17 14:09:38;;;;;;;15.68;7.63;;;;;;;;;;6195729;28;20034;-80
2023/12/17 14:12:40;;;;;;;22.67;9.88;;;;;;;;;;6195601;28;20404;-77
2023/12/17 14:15:42;;;;;;;13.70;6.25;;;;;;;;;;6226797;28;20046;-83
2023/12/17 14:18:44;;;;;;;13.82;7.32;;;;;;;;;;6205050;28;20046;-81
2023/12/17 14:21:46;;;;;;;11.55;6.90;;;;;;;;;;6207702;28;20061;-82
2023/12/17 14:24:50;;;;;;;11.95;5.53;;;;;;;;;;6205806;28;20124;-80
2023/12/17 14:27:52;;;;;;;12.68;5.97;;;;;;;;;;6204866;28;20125;-82
2023/12/17 14:30:54;;;;;;;13.77;5.60;;;;;;;;;;6201977;28;20071;-82
2023/12/17 14:33:59;;;;;;;13.32;5.55;;;;;;;;;;6208742;28;20050;-81
2023/12/17 14:37:05;;;;;;;15.90;7.22;;;;;;;;;;6204638;28;20042;-78
2023/12/17 14:40:08;;;;;;;13.27;6.75;;;;;;;;;;6191818;28;20053;-81
2023/12/17 14:43:10;;;;;;;12.83;5.47;;;;;;;;;;6210253;28;20083;-80
2023/12/17 14:46:12;;;;;;;10.40;5.05;;;;;;;;;;6203880;28;20058;-78
2023/12/17 14:49:14;;;;;;;13.00;6.17;;;;;;;;;;6192139;28;20046;-80
2023/12/17 14:52:18;;;;;;;10.75;5.20;;;;;;;;;;6207901;28;20447;-79
2023/12/17 14:55:19;;;;;;;12.05;6.20;;;;;;;;;;6190602;28;20064;-79
2023/12/17 14:58:22;;;;;;;12.38;6.90;;;;;;;;;;6207318;28;20100;-84
2023/12/17 15:01:24;;;;;;;16.80;8.50;;;;;;;;;;6203774;28;20057;-82
2023/12/17 15:04:35;;;;;;;18.00;9.05;;;;;;;;;;6207019;28;20073;-82
2023/12/17 15:07:37;;;;;;;14.00;7.80;;;;;;;;;;6205880;28;20488;-82
2023/12/17 15:10:39;;;;;;;14.98;7.95;;;;;;;;;;6169018;28;20050;-81
2023/12/17 15:13:41;;;;;;;17.00;7.70;;;;;;;;;;6171534;28;20050;-79
2023/12/17 15:16:43;;;;;;;12.90;5.80;;;;;;;;;;6198242;28;20048;-78
2023/12/17 15:19:48;;;;;;;16.52;6.65;;;;;;;;;;6207655;28;20046;-79
2023/12/17 15:22:50;;;;;;;9.80;4.35;;;;;;;;;;6187757;28;20046;-80
2023/12/17 15:25:52;;;;;;;30.05;13.00;;;;;;;;;;6206388;28;20068;-78
2023/12/17 15:28:53;;;;;;;21.92;10.63;;;;;;;;;;6181179;28;20052;-77
2023/12/17 15:31:55;;;;;;;13.93;4.68;;;;;;;;;;6190784;28;20065;-78
2023/12/17 15:34:57;;;;;;;15.35;5.75;;;;;;;;;;6206217;28;20045;-80
2023/12/17 15:37:59;;;;;;;14.40;6.82;;;;;;;;;;6207268;28;20053;-83
2023/12/17 15:41:01;;;;;;;14.02;5.65;;;;;;;;;;6206767;28;20169;-81
2023/12/17 15:44:03;;;;;;;20.70;5.72;;;;;;;;;;6203800;28;20077;-83
2023/12/17 15:47:05;;;;;;;14.77;5.00;;;;;;;;;;6205834;28;20037;-83
2023/12/17 15:50:07;;;;;;;13.93;5.32;;;;;;;;;;6188448;28;20053;-81
2023/12/17 15:53:10;;;;;;;23.10;5.95;;;;;;;;;;6184293;28;20053;-81
2023/12/17 15:56:12;;;;;;;16.45;6.22;;;;;;;;;;6188599;28;20057;-81
2023/12/17 15:59:15;;;;;;;13.32;6.07;;;;;;;;;;6202707;28;20050;-82
2023/12/17 16:02:17;;;;;;;20.58;6.82;;;;;;;;;;6204246;28;20054;-79
2023/12/17 16:05:18;;;;;;;10.35;5.25;;;;;;;;;;6205770;28;20049;-79
2023/12/17 16:08:21;;;;;;;18.42;6.95;;;;;;;;;;6187141;28;20042;-79
2023/12/17 16:11:23;;;;;;;14.52;6.30;;;;;;;;;;6204321;28;20049;-83
2023/12/17 16:14:25;;;;;;;17.90;6.78;;;;;;;;;;6202068;28;20070;-81
2023/12/17 16:17:27;;;;;;;27.25;10.50;;;;;;;;;;6195040;28;20026;-80
2023/12/17 16:20:29;;;;;;;26.75;12.07;;;;;;;;;;6218726;28;20054;-79
2023/12/17 16:23:30;;;;;;;25.45;9.55;;;;;;;;;;6173555;28;20042;-80
2023/12/17 16:26:32;;;;;;;18.70;6.05;;;;;;;;;;6211820;28;20052;-79
2023/12/17 16:29:34;;;;;;;19.83;8.43;;;;;;;;;;6190595;28;20463;-78
2023/12/17 16:32:38;;;;;;;15.35;7.05;;;;;;;;;;6211181;28;20053;-78
2023/12/17 16:35:42;;;;;;;17.38;8.82;;;;;;;;;;6208701;28;20232;-77
2023/12/17 16:38:44;;;;;;;15.25;6.35;;;;;;;;;;6171298;28;20074;-82
2023/12/17 16:41:46;;;;;;;14.80;6.00;;;;;;;;;;6193833;28;20053;-80
2023/12/17 16:44:48;;;;;;;15.55;6.25;;;;;;;;;;6200676;28;20037;-79
2023/12/17 16:47:49;;;;;;;16.55;6.25;;;;;;;;;;6191463;28;20053;-83
2023/12/17 16:50:51;;;;;;;24.92;6.75;;;;;;;;;;6206436;28;20042;-82
2023/12/17 16:53:53;;;;;;;16.35;5.78;;;;;;;;;;6207894;28;20045;-81
2023/12/17 16:56:58;;;;;;;18.40;6.72;;;;;;;;;;6208562;28;20052;-80
2023/12/17 17:00:00;;;;;;;18.27;6.68;;;;;;;;;;6208395;28;20099;-82
2023/12/17 17:03:03;;;;;;;14.95;7.05;;;;;;;;;;6213742;28;20116;-80
2023/12/17 17:06:08;;;;;;;18.73;7.55;;;;;;;;;;6195629;28;20056;-80
2023/12/17 17:09:10;;;;;;;15.30;7.38;;;;;;;;;;6190247;28;20061;-80
2023/12/17 17:12:12;;;;;;;19.85;7.90;;;;;;;;;;6209921;28;20531;-81
2023/12/17 17:15:14;;;;;;;17.70;7.43;;;;;;;;;;6173878;28;20085;-79
2023/12/17 17:18:15;;;;;;;16.20;6.97;;;;;;;;;;6187770;28;20073;-79
2023/12/17 17:21:18;;;;;;;20.97;8.23;;;;;;;;;;6204616;28;20455;-78
2023/12/17 17:24:20;;;;;;;13.77;5.72;;;;;;;;;;6205805;28;20050;-77
2023/12/17 17:27:23;;;;;;;23.97;8.60;;;;;;;;;;6188112;28;20507;-75
2023/12/17 17:30:26;;;;;;;27.98;9.90;;;;;;;;;;6188280;28;20445;-77
2023/12/17 17:33:29;;;;;;;15.23;6.03;;;;;;;;;;6220538;28;20105;-76
2023/12/17 17:36:31;;;;;;;17.27;6.97;;;;;;;;;;6202378;28;20065;-76
2023/12/17 17:39:33;;;;;;;18.20;6.72;;;;;;;;;;6224091;28;20105;-77
2023/12/17 17:42:35;;;;;;;22.90;10.40;;;;;;;;;;6223721;28;20044;-77
2023/12/17 17:45:37;;;;;;;21.17;9.13;;;;;;;;;;6201757;28;20062;-76
2023/12/17 17:48:39;;;;;;;18.05;8.25;;;;;;;;;;6226765;28;20033;-77
2023/12/17 17:51:41;;;;;;;89.90;44.97;;;;;;;;;;6223194;28;20085;-77
2023/12/17 17:54:44;;;;;;;24.17;12.45;;;;;;;;;;6216620;28;20045;-77
2023/12/17 17:57:46;;;;;;;21.13;8.60;;;;;;;;;;6196965;28;20093;-76
2023/12/17 18:00:48;;;;;;;23.08;8.65;;;;;;;;;;6189083;28;20049;-80
2023/12/17 18:03:52;;;;;;;16.88;7.05;;;;;;;;;;6203703;28;20072;-78
2023/12/17 18:06:54;;;;;;;14.15;6.50;;;;;;;;;;6185116;28;20091;-78
2023/12/17 18:09:56;;;;;;;20.58;7.68;;;;;;;;;;6180509;28;20128;-78